Terminal Aerodrome Forecast
Issued by NWS

Current Version | Previous Version | Text Only | Print | Product List | Glossary On
Versions: 1 2 3 4 5 6 7 8 9 10 11 12 13 14 15 16 17 18 19 20 21 22 23 24 25 26 27 28
000
FTUS41 KCTP 300540
TAFUNV
TAF
KUNV 300540Z 3006/3106 07007KT P6SM SCT100 BKN250
     FM301000 09007KT P6SM SCT040 OVC120
     FM301600 14008G15KT P6SM OVC040
     FM301800 14009G15KT 5SM -RA OVC025
     FM302200 15010G22KT 2SM -RA BR OVC015 WS020/17035KT=

USA.gov is the U.S. government's official web portal to all federal, state and local government web resources and services.